createdAt,value
2023-04-14T00:00:10.680Z,5.85
2023-04-14T00:01:17.055Z,5.50
2023-04-14T00:02:19.239Z,6.40
2023-04-14T00:03:21.564Z,6.05
2023-04-14T00:04:24.058Z,5.18
2023-04-14T00:05:32.851Z,5.40
2023-04-14T00:06:35.501Z,6.07
2023-04-14T00:07:37.591Z,6.45
2023-04-14T00:08:39.684Z,5.90
2023-04-14T00:09:42.516Z,5.28
2023-04-14T00:10:44.613Z,5.30
2023-04-14T00:11:46.769Z,5.85
2023-04-14T00:12:48.929Z,5.97
2023-04-14T00:13:51.317Z,5.20
2023-04-14T00:14:53.395Z,6.50
2023-04-14T00:15:56.249Z,5.55
2023-04-14T00:16:58.435Z,5.45
2023-04-14T00:18:00.575Z,5.60
2023-04-14T00:19:02.972Z,5.30
2023-04-14T00:20:05.959Z,6.57
2023-04-14T00:21:08.103Z,5.88
2023-04-14T00:22:10.185Z,7.00
2023-04-14T00:23:12.267Z,5.80
2023-04-14T00:24:14.481Z,6.22
2023-04-14T00:25:16.794Z,5.97
2023-04-14T00:26:18.938Z,6.25
2023-04-14T00:27:21.056Z,5.53
2023-04-14T00:28:23.144Z,5.75
2023-04-14T00:29:25.465Z,6.28
2023-04-14T00:30:27.541Z,6.43
2023-04-14T00:31:29.729Z,5.70
2023-04-14T00:32:31.903Z,6.13
2023-04-14T00:33:33.992Z,5.35
2023-04-14T00:34:36.165Z,6.05
2023-04-14T00:35:38.354Z,5.72
2023-04-14T00:36:40.606Z,6.43
2023-04-14T00:37:42.727Z,5.40
2023-04-14T00:38:44.819Z,5.82
2023-04-14T00:39:46.944Z,5.75
2023-04-14T00:40:49.013Z,6.10
2023-04-14T00:41:51.266Z,6.18
2023-04-14T00:42:53.355Z,5.30
2023-04-14T00:43:55.621Z,5.50
2023-04-14T00:44:57.708Z,5.85
2023-04-14T00:46:00.741Z,6.68
2023-04-14T00:47:03.751Z,5.55
2023-04-14T00:48:06.391Z,6.15
2023-04-14T00:49:08.785Z,5.55
2023-04-14T00:50:11.076Z,5.55
2023-04-14T00:51:13.446Z,5.35
2023-04-14T00:52:15.641Z,5.07
2023-04-14T00:53:17.887Z,6.00
2023-04-14T00:54:20.979Z,6.00
2023-04-14T00:55:23.129Z,5.28
2023-04-14T00:56:26.501Z,5.70
2023-04-14T00:57:29.641Z,5.78
2023-04-14T00:58:31.747Z,5.40
2023-04-14T00:59:33.849Z,5.93
2023-04-14T01:00:36.292Z,6.00
2023-04-14T01:01:38.943Z,5.57
2023-04-14T01:02:41.386Z,5.82
2023-04-14T01:03:44.415Z,5.60
2023-04-14T01:04:54.161Z,5.15
2023-04-14T01:05:56.986Z,5.65
2023-04-14T01:06:59.208Z,5.60
2023-04-14T01:08:02.741Z,5.55
2023-04-14T01:09:05.019Z,5.80
2023-04-14T01:10:07.814Z,5.38
2023-04-14T01:11:32.332Z,6.10
2023-04-14T01:12:46.770Z,5.25
2023-04-14T01:14:10.022Z,6.15
2023-04-14T01:15:20.539Z,5.93
2023-04-14T01:16:30.378Z,5.40
2023-04-14T01:17:40.654Z,5.68
2023-04-14T01:19:01.379Z,5.28
2023-04-14T01:20:25.840Z,4.95
2023-04-14T01:21:31.697Z,6.00
2023-04-14T01:22:37.112Z,5.05
2023-04-14T01:23:44.680Z,6.03
2023-04-14T01:25:02.661Z,5.03
2023-04-14T01:26:26.826Z,5.57
2023-04-14T01:27:44.236Z,5.72
2023-04-14T01:30:17.102Z,5.13
2023-04-14T01:31:44.967Z,5.72
2023-04-14T01:32:48.419Z,4.55
2023-04-14T01:33:56.883Z,5.18
2023-04-14T01:35:09.365Z,5.43
2023-04-14T01:36:13.976Z,5.22
2023-04-14T01:37:19.586Z,5.32
2023-04-14T01:38:30.024Z,5.25
2023-04-14T01:39:36.084Z,4.85
2023-04-14T01:40:41.406Z,5.25
2023-04-14T01:41:46.205Z,5.32
2023-04-14T01:42:52.287Z,5.63
2023-04-14T01:43:55.923Z,5.32
2023-04-14T01:45:02.873Z,5.43
2023-04-14T01:46:07.804Z,5.25
2023-04-14T01:47:13.107Z,5.57
2023-04-14T01:48:16.095Z,5.90
2023-04-14T01:49:19.586Z,5.35
2023-04-14T01:50:22.439Z,5.72
2023-04-14T01:51:27.508Z,5.15
2023-04-14T01:52:30.904Z,5.30
2023-04-14T01:53:34.043Z,6.18
2023-04-14T01:54:39.053Z,4.65
2023-04-14T01:55:42.024Z,5.30
2023-04-14T01:56:45.049Z,4.82
2023-04-14T01:57:49.946Z,5.40
2023-04-14T01:58:54.505Z,5.75
2023-04-14T01:59:57.645Z,5.07
2023-04-14T02:01:00.144Z,5.35
2023-04-14T02:02:04.410Z,4.97
2023-04-14T02:03:06.921Z,4.85
2023-04-14T02:04:10.034Z,4.75
2023-04-14T02:05:13.440Z,5.65
2023-04-14T02:06:16.786Z,5.10
2023-04-14T02:07:21.974Z,5.35
2023-04-14T02:08:24.545Z,4.70
2023-04-14T02:09:27.156Z,4.45
2023-04-14T02:10:29.774Z,4.80
2023-04-14T02:11:32.969Z,5.40
2023-04-14T02:12:36.861Z,5.07
2023-04-14T02:13:41.013Z,4.85
2023-04-14T02:14:43.443Z,5.07
2023-04-14T02:15:48.271Z,4.55
2023-04-14T02:16:51.705Z,4.20
2023-04-14T02:17:55.147Z,4.88
2023-04-14T02:18:57.908Z,4.85
2023-04-14T02:20:01.080Z,5.32
2023-04-14T02:21:04.242Z,4.90
2023-04-14T02:22:06.449Z,4.75
2023-04-14T02:23:08.487Z,5.10
2023-04-14T02:24:10.737Z,4.13
2023-04-14T02:25:12.962Z,4.57
2023-04-14T02:26:18.754Z,4.75
2023-04-14T02:27:29.841Z,4.65
2023-04-14T02:29:36.655Z,4.28
2023-04-14T02:30:39.864Z,4.80
2023-04-14T02:31:44.684Z,4.85
2023-04-14T02:32:49.750Z,4.97
2023-04-14T02:33:55.731Z,5.18
2023-04-14T02:35:08.425Z,4.72
2023-04-14T02:36:17.354Z,5.22
2023-04-14T02:37:24.112Z,5.70
2023-04-14T02:38:29.102Z,4.72
2023-04-14T02:39:33.965Z,5.55
2023-04-14T02:40:39.330Z,5.22
2023-04-14T02:41:44.507Z,5.65
2023-04-14T02:42:51.083Z,5.75
2023-04-14T02:44:04.600Z,4.60
2023-04-14T02:45:12.444Z,4.85
2023-04-14T02:46:16.944Z,6.18
2023-04-14T02:47:32.376Z,5.97
2023-04-14T02:48:36.091Z,4.60
2023-04-14T02:49:40.705Z,5.18
2023-04-14T02:50:45.744Z,5.57
2023-04-14T02:51:48.256Z,5.60
2023-04-14T02:52:51.728Z,4.78
2023-04-14T02:53:54.194Z,5.03
2023-04-14T02:54:56.946Z,4.90
2023-04-14T02:55:59.367Z,5.25
2023-04-14T02:57:02.625Z,5.45
2023-04-14T02:58:04.921Z,5.35
2023-04-14T02:59:07.484Z,4.93
2023-04-14T03:00:10.792Z,4.97
2023-04-14T03:01:13.291Z,4.85
2023-04-14T03:02:16.398Z,5.00
2023-04-14T03:03:19.173Z,4.78
2023-04-14T03:04:22.036Z,4.80
2023-04-14T03:05:24.678Z,5.28
2023-04-14T03:06:27.549Z,5.00
2023-04-14T03:07:29.836Z,4.82
2023-04-14T03:08:32.993Z,5.55
2023-04-14T03:09:35.121Z,4.97
2023-04-14T03:10:38.344Z,5.47
2023-04-14T03:11:41.719Z,5.15
2023-04-14T03:12:44.126Z,4.40
2023-04-14T03:13:46.965Z,5.35
2023-04-14T03:14:49.600Z,5.03
2023-04-14T03:15:52.273Z,5.30
2023-04-14T03:16:54.938Z,5.10
2023-04-14T03:17:57.496Z,5.70
2023-04-14T03:19:00.183Z,4.82
2023-04-14T03:20:03.132Z,4.75
2023-04-14T03:21:06.204Z,5.30
2023-04-14T03:22:08.906Z,5.30
2023-04-14T03:23:12.452Z,5.00
2023-04-14T03:24:19.183Z,5.15
2023-04-14T03:25:21.953Z,5.60
2023-04-14T03:26:25.603Z,5.68
2023-04-14T03:27:31.529Z,4.57
2023-04-14T03:28:37.581Z,5.35
2023-04-14T03:29:43.232Z,5.55
2023-04-14T03:30:48.016Z,5.25
2023-04-14T03:31:50.643Z,5.60
2023-04-14T03:32:53.791Z,5.05
2023-04-14T03:33:57.967Z,4.53
2023-04-14T03:35:01.492Z,5.30
2023-04-14T03:36:04.330Z,5.15
2023-04-14T03:37:08.148Z,4.75
2023-04-14T03:38:11.147Z,5.20
2023-04-14T03:39:14.843Z,5.38
2023-04-14T03:40:17.748Z,4.95
2023-04-14T03:41:21.562Z,5.35
2023-04-14T03:42:25.705Z,4.95
2023-04-14T03:43:28.288Z,5.65
2023-04-14T03:44:34.475Z,5.57
2023-04-14T03:45:40.628Z,5.53
2023-04-14T03:46:43.310Z,4.85
2023-04-14T03:47:46.225Z,5.22
2023-04-14T03:48:52.628Z,5.20
2023-04-14T03:50:01.232Z,5.25
2023-04-14T03:51:04.276Z,5.75
2023-04-14T03:52:11.661Z,6.03
2023-04-14T03:53:15.029Z,5.70
2023-04-14T03:54:17.732Z,4.85
2023-04-14T03:55:20.033Z,5.65
2023-04-14T03:56:22.898Z,5.68
2023-04-14T03:57:26.228Z,5.45
2023-04-14T03:58:29.422Z,5.43
2023-04-14T03:59:32.225Z,5.03
2023-04-14T04:00:34.755Z,5.80
2023-04-14T04:01:38.342Z,5.60
2023-04-14T04:02:41.781Z,6.00
2023-04-14T04:03:45.062Z,5.82
2023-04-14T04:04:48.731Z,5.47
2023-04-14T04:05:51.220Z,5.13
2023-04-14T04:06:53.835Z,5.60
2023-04-14T04:07:56.775Z,6.53
2023-04-14T04:08:59.861Z,5.60
2023-04-14T04:10:04.699Z,6.00
2023-04-14T04:11:07.718Z,6.22
2023-04-14T04:12:11.269Z,6.05
2023-04-14T04:13:17.254Z,5.43
2023-04-14T04:14:21.494Z,5.57
2023-04-14T04:15:24.107Z,6.20
2023-04-14T04:16:26.763Z,6.18
2023-04-14T04:17:31.785Z,6.40
2023-04-14T04:18:34.923Z,6.10
2023-04-14T04:19:37.898Z,6.65
2023-04-14T04:20:41.067Z,6.00
2023-04-14T04:21:44.879Z,6.45
2023-04-14T04:22:49.810Z,6.22
2023-04-14T04:23:53.747Z,7.43
2023-04-14T04:24:56.400Z,6.47
2023-04-14T04:25:58.759Z,6.38
2023-04-14T04:27:01.449Z,6.63
2023-04-14T04:28:04.100Z,7.55
2023-04-14T04:29:06.649Z,7.20
2023-04-14T04:30:09.870Z,6.72
2023-04-14T04:31:13.750Z,6.57
2023-04-14T04:32:17.103Z,6.35
2023-04-14T04:33:19.664Z,6.47
2023-04-14T04:34:23.481Z,6.07
2023-04-14T04:35:26.349Z,6.50
2023-04-14T04:36:29.333Z,6.18
2023-04-14T04:37:33.323Z,6.43
2023-04-14T04:38:35.496Z,5.95
2023-04-14T04:39:37.619Z,5.82
2023-04-14T04:40:39.775Z,6.45
2023-04-14T04:41:41.985Z,5.88
2023-04-14T04:42:44.129Z,5.65
2023-04-14T04:43:46.221Z,6.03
2023-04-14T04:44:48.309Z,6.32
2023-04-14T04:45:59.324Z,5.70
2023-04-14T04:48:04.433Z,6.20
2023-04-14T04:49:06.658Z,5.47
2023-04-14T04:50:09.017Z,6.07
2023-04-14T04:51:11.156Z,6.45
2023-04-14T04:52:13.380Z,6.43
2023-04-14T04:53:15.576Z,6.72
2023-04-14T04:54:18.258Z,6.72
2023-04-14T04:55:20.576Z,6.65
2023-04-14T04:56:22.776Z,5.95
2023-04-14T04:57:24.863Z,6.47
2023-04-14T04:58:26.921Z,6.43
2023-04-14T04:59:29.017Z,6.28
2023-04-14T05:00:31.156Z,6.38
2023-04-14T05:01:33.349Z,6.38
2023-04-14T05:02:35.692Z,6.05
2023-04-14T05:03:38.045Z,6.57
2023-04-14T05:04:40.940Z,6.07
2023-04-14T05:05:43.076Z,6.30
2023-04-14T05:06:45.259Z,6.80
2023-04-14T05:07:47.443Z,6.65
2023-04-14T05:08:52.944Z,5.78
2023-04-14T05:09:55.034Z,6.40
2023-04-14T05:10:57.285Z,6.95
2023-04-14T05:11:59.494Z,6.50
2023-04-14T05:13:01.589Z,6.45
2023-04-14T05:14:03.701Z,6.18
2023-04-14T05:15:06.927Z,6.20
2023-04-14T05:16:10.304Z,6.50
2023-04-14T05:17:12.453Z,6.68
2023-04-14T05:18:14.824Z,6.35
2023-04-14T05:19:17.017Z,6.80
2023-04-14T05:20:19.114Z,6.72
2023-04-14T05:21:21.205Z,6.88
2023-04-14T05:22:23.468Z,5.80
2023-04-14T05:23:25.568Z,7.15
2023-04-14T05:24:27.667Z,6.32
2023-04-14T05:25:29.762Z,7.10
2023-04-14T05:26:51.699Z,7.13
2023-04-14T05:27:54.146Z,6.65
2023-04-14T05:28:56.282Z,7.50
2023-04-14T05:29:58.369Z,6.50
2023-04-14T05:31:01.464Z,6.15
2023-04-14T05:32:03.740Z,6.53
2023-04-14T05:33:05.877Z,9.77
2023-04-14T05:34:08.064Z,7.53
2023-04-14T05:35:10.226Z,9.80
2023-04-14T05:36:12.298Z,8.30
2023-04-14T05:37:14.469Z,6.65
2023-04-14T05:38:17.493Z,8.43
2023-04-14T05:39:19.589Z,8.85
2023-04-14T05:40:22.602Z,6.97
2023-04-14T05:41:24.736Z,6.80
2023-04-14T05:42:27.227Z,6.97
2023-04-14T05:43:29.294Z,6.53
2023-04-14T05:44:31.407Z,6.50
2023-04-14T05:45:33.808Z,6.80
2023-04-14T05:46:36.021Z,6.53
2023-04-14T05:47:39.676Z,6.68
2023-04-14T05:48:41.853Z,6.68
2023-04-14T05:49:43.929Z,7.13
2023-04-14T05:50:46.138Z,7.10
2023-04-14T05:51:48.239Z,6.85
2023-04-14T05:52:51.242Z,7.28
2023-04-14T05:53:53.910Z,6.85
2023-04-14T05:54:56.055Z,6.53
2023-04-14T05:55:58.257Z,6.60
2023-04-14T05:57:00.964Z,7.32
2023-04-14T05:58:03.186Z,6.63
2023-04-14T05:59:05.387Z,7.53
2023-04-14T06:00:08.755Z,6.82
2023-04-14T06:01:10.816Z,7.45
2023-04-14T06:02:13.184Z,6.65
2023-04-14T06:03:16.788Z,7.60
2023-04-14T06:04:19.301Z,6.75
2023-04-14T06:05:24.463Z,6.78
2023-04-14T06:06:28.122Z,7.30
2023-04-14T06:07:30.578Z,6.82
2023-04-14T06:08:32.647Z,7.38
2023-04-14T06:09:34.709Z,7.50
2023-04-14T06:10:37.145Z,7.72
2023-04-14T06:11:39.793Z,6.78
2023-04-14T06:12:41.913Z,6.45
2023-04-14T06:13:44.086Z,6.90
2023-04-14T06:14:46.224Z,6.90
2023-04-14T06:15:51.228Z,7.35
2023-04-14T06:16:53.439Z,6.88
2023-04-14T06:17:55.942Z,7.28
2023-04-14T06:18:58.534Z,6.43
2023-04-14T06:20:02.324Z,7.03
2023-04-14T06:21:04.524Z,6.40
2023-04-14T06:22:07.148Z,7.68
2023-04-14T06:23:09.263Z,7.30
2023-04-14T06:24:11.322Z,7.13
2023-04-14T06:25:13.657Z,7.55
2023-04-14T06:26:15.956Z,7.28
2023-04-14T06:27:18.214Z,7.95
2023-04-14T06:28:23.938Z,6.82
2023-04-14T06:29:26.276Z,7.13
2023-04-14T06:30:28.661Z,7.57
2023-04-14T06:31:30.825Z,7.03
2023-04-14T06:32:33.042Z,7.45
2023-04-14T06:33:35.529Z,6.97
2023-04-14T06:34:37.697Z,6.80
2023-04-14T06:35:39.958Z,8.25
2023-04-14T06:36:42.118Z,7.13
2023-04-14T06:37:44.230Z,7.43
2023-04-14T06:38:46.400Z,8.13
2023-04-14T06:39:48.525Z,7.47
2023-04-14T06:40:53.218Z,6.97
2023-04-14T06:41:55.697Z,7.38
2023-04-14T06:42:57.833Z,7.53
2023-04-14T06:43:59.993Z,7.55
2023-04-14T06:45:02.089Z,7.40
2023-04-14T06:46:04.366Z,7.47
2023-04-14T06:47:06.653Z,7.25
2023-04-14T06:48:08.928Z,7.03
2023-04-14T06:49:11.120Z,6.97
2023-04-14T06:50:13.278Z,7.80
2023-04-14T06:51:15.436Z,7.13
2023-04-14T06:52:17.521Z,8.13
2023-04-14T06:53:19.651Z,7.72
2023-04-14T06:54:21.723Z,7.68
2023-04-14T06:55:23.852Z,8.77
2023-04-14T06:56:26.006Z,7.63
2023-04-14T06:57:28.097Z,7.65
2023-04-14T06:58:30.598Z,8.25
2023-04-14T06:59:32.717Z,7.13
2023-04-14T07:00:34.819Z,7.72
2023-04-14T07:01:36.963Z,7.40
2023-04-14T07:02:39.225Z,8.10
2023-04-14T07:03:41.445Z,7.35
2023-04-14T07:04:43.677Z,8.68
2023-04-14T07:05:45.987Z,7.40
2023-04-14T07:06:48.120Z,7.32
2023-04-14T07:07:51.057Z,7.03
2023-04-14T07:08:54.320Z,8.13
2023-04-14T07:09:56.496Z,8.02
2023-04-14T07:11:07.102Z,7.72
2023-04-14T07:12:14.103Z,8.50
2023-04-14T07:13:16.198Z,6.93
2023-04-14T07:14:18.353Z,7.90
2023-04-14T07:15:20.567Z,8.85
2023-04-14T07:16:23.230Z,7.15
2023-04-14T07:17:25.583Z,7.25
2023-04-14T07:18:27.787Z,8.32
2023-04-14T07:19:30.058Z,7.20
2023-04-14T07:20:32.521Z,7.55
2023-04-14T07:21:34.704Z,7.63
2023-04-14T07:22:36.831Z,7.43
2023-04-14T07:23:39.855Z,8.43
2023-04-14T07:24:42.049Z,8.38
2023-04-14T07:25:44.639Z,7.82
2023-04-14T07:26:47.014Z,7.60
2023-04-14T07:28:02.045Z,8.25
2023-04-14T07:29:05.573Z,7.68
2023-04-14T07:30:08.209Z,9.45
2023-04-14T07:31:11.018Z,7.88
2023-04-14T07:32:13.510Z,7.78
2023-04-14T07:33:19.231Z,7.90
2023-04-14T07:34:21.370Z,7.93
2023-04-14T07:35:25.853Z,8.07
2023-04-14T07:36:28.019Z,7.80
2023-04-14T07:37:30.168Z,9.05
2023-04-14T07:38:33.305Z,7.45
2023-04-14T07:39:35.570Z,8.13
2023-04-14T07:40:39.980Z,7.65
2023-04-14T07:41:42.433Z,8.93
2023-04-14T07:42:44.697Z,8.57
2023-04-14T07:43:46.945Z,8.00
2023-04-14T07:44:49.029Z,8.38
2023-04-14T07:45:52.583Z,8.15
2023-04-14T07:46:54.698Z,8.07
2023-04-14T07:47:57.885Z,8.98
2023-04-14T07:49:00.187Z,7.65
2023-04-14T07:50:02.315Z,8.05
2023-04-14T07:51:05.479Z,8.73
2023-04-14T07:52:07.640Z,9.40
2023-04-14T07:53:09.740Z,8.15
2023-04-14T07:54:12.184Z,8.93
2023-04-14T07:55:14.297Z,8.15
2023-04-14T07:56:16.515Z,8.35
2023-04-14T07:57:18.610Z,8.18
2023-04-14T07:58:22.058Z,8.43
2023-04-14T07:59:25.628Z,9.10
2023-04-14T08:00:27.759Z,7.60
2023-04-14T08:01:29.928Z,8.07
2023-04-14T08:02:33.073Z,7.53
2023-04-14T08:03:39.349Z,8.02
2023-04-14T08:04:43.218Z,8.27
2023-04-14T08:05:45.979Z,7.25
2023-04-14T08:06:48.370Z,8.68
2023-04-14T08:07:50.453Z,7.60
2023-04-14T08:08:52.535Z,7.22
2023-04-14T08:09:54.761Z,7.10
2023-04-14T08:10:56.893Z,8.15
2023-04-14T08:11:59.011Z,8.68
2023-04-14T08:13:03.546Z,7.85
2023-04-14T08:14:05.944Z,7.50
2023-04-14T08:15:09.664Z,7.20
2023-04-14T08:16:12.103Z,7.32
2023-04-14T08:17:14.579Z,7.30
2023-04-14T08:18:16.699Z,8.73
2023-04-14T08:19:18.781Z,7.07
2023-04-14T08:20:20.889Z,7.15
2023-04-14T08:21:22.993Z,7.82
2023-04-14T08:22:25.619Z,6.88
2023-04-14T08:23:27.758Z,7.53
2023-04-14T08:24:29.843Z,7.03
2023-04-14T08:25:32.011Z,8.25
2023-04-14T08:26:34.114Z,8.43
2023-04-14T08:27:36.823Z,7.95
2023-04-14T08:28:38.930Z,8.05
2023-04-14T08:29:41.015Z,8.27
2023-04-14T08:30:43.196Z,7.45
2023-04-14T08:31:45.659Z,7.82
2023-04-14T08:32:47.841Z,7.13
2023-04-14T08:33:50.501Z,7.35
2023-04-14T08:35:35.558Z,7.47
2023-04-14T08:36:15.434Z,8.18
2023-04-14T08:37:18.721Z,7.30
2023-04-14T08:38:20.948Z,7.43
2023-04-14T08:39:23.064Z,7.47
2023-04-14T08:40:25.355Z,7.25
2023-04-14T08:41:28.518Z,7.18
2023-04-14T08:42:31.208Z,7.85
2023-04-14T08:43:33.391Z,6.63
2023-04-14T08:44:35.820Z,7.97
2023-04-14T08:45:38.084Z,7.72
2023-04-14T08:46:42.437Z,8.35
2023-04-14T08:47:46.586Z,8.27
2023-04-14T08:48:49.649Z,7.35
2023-04-14T08:49:51.684Z,9.05
2023-04-14T08:51:14.032Z,8.32
2023-04-14T08:52:18.195Z,8.32
2023-04-14T08:53:21.091Z,7.75
2023-04-14T08:54:23.569Z,7.68
2023-04-14T08:55:26.343Z,8.38
2023-04-14T08:56:32.397Z,7.68
2023-04-14T08:57:34.970Z,8.05
2023-04-14T08:58:37.751Z,7.93
2023-04-14T08:59:41.703Z,8.73
2023-04-14T09:00:43.935Z,8.60
2023-04-14T09:01:46.579Z,8.75
2023-04-14T09:02:49.485Z,8.73
2023-04-14T09:03:52.787Z,9.02
2023-04-14T09:04:57.590Z,9.52
2023-04-14T09:07:03.000Z,9.73
2023-04-14T09:08:05.261Z,10.20
2023-04-14T09:09:08.080Z,10.38
2023-04-14T09:10:11.636Z,10.55
2023-04-14T09:11:14.303Z,10.50
2023-04-14T09:12:17.823Z,10.18
2023-04-14T09:13:21.429Z,11.27
2023-04-14T09:14:23.761Z,11.07
2023-04-14T09:15:28.902Z,11.30
2023-04-14T09:16:31.996Z,11.20
2023-04-14T09:17:34.460Z,10.45
2023-04-14T09:18:36.801Z,10.80
2023-04-14T09:20:39.707Z,11.40
2023-04-14T09:21:30.438Z,10.77
2023-04-14T09:22:27.458Z,11.80
2023-04-14T09:23:30.157Z,11.57
2023-04-14T09:24:34.347Z,12.00
2023-04-14T09:25:38.464Z,12.55
2023-04-14T09:26:40.662Z,12.43
2023-04-14T09:27:42.940Z,12.45
2023-04-14T09:28:45.118Z,11.40
2023-04-14T09:29:48.016Z,12.07
2023-04-14T09:30:50.189Z,13.00
2023-04-14T09:31:52.510Z,11.88
2023-04-14T09:32:55.175Z,12.25
2023-04-14T09:33:58.136Z,14.15
2023-04-14T09:35:00.427Z,11.52
2023-04-14T09:36:02.541Z,11.48
2023-04-14T09:37:09.511Z,12.30
2023-04-14T09:38:11.693Z,12.82
2023-04-14T09:39:17.779Z,12.20
2023-04-14T09:40:30.630Z,12.55
2023-04-14T09:41:32.825Z,10.27
2023-04-14T09:42:39.759Z,11.65
2023-04-14T09:43:42.469Z,11.57
2023-04-14T09:44:57.750Z,11.05
2023-04-14T09:46:07.717Z,11.63
2023-04-14T09:47:09.865Z,10.43
2023-04-14T09:48:13.486Z,10.77
2023-04-14T09:49:15.679Z,11.25
2023-04-14T09:50:17.842Z,10.95
2023-04-14T09:51:29.876Z,10.38
2023-04-14T09:52:44.662Z,10.55
2023-04-14T09:53:48.692Z,10.70
2023-04-14T09:54:56.148Z,10.98
2023-04-14T09:56:03.170Z,12.30
2023-04-14T09:57:05.334Z,11.88
2023-04-14T09:58:09.782Z,10.65
2023-04-14T09:59:13.009Z,11.60
2023-04-14T10:00:22.569Z,11.45
2023-04-14T10:01:32.196Z,11.85
2023-04-14T10:02:48.292Z,10.85
2023-04-14T10:03:50.648Z,11.00
2023-04-14T10:05:06.469Z,10.20
2023-04-14T10:06:19.142Z,12.40
2023-04-14T10:07:21.367Z,11.43
2023-04-14T10:08:33.973Z,11.13
2023-04-14T10:09:37.846Z,11.90
2023-04-14T10:10:40.170Z,10.23
2023-04-14T10:11:42.295Z,10.45
2023-04-14T10:12:44.599Z,11.77
2023-04-14T10:13:51.576Z,12.00
2023-04-14T10:14:53.674Z,11.82
2023-04-14T10:15:55.907Z,11.10
2023-04-14T10:16:58.088Z,12.10
2023-04-14T10:18:00.208Z,11.23
2023-04-14T10:19:03.688Z,11.05
2023-04-14T10:20:07.094Z,11.27
2023-04-14T10:21:09.650Z,10.55
2023-04-14T10:22:12.230Z,10.77
2023-04-14T10:23:14.600Z,10.43
2023-04-14T10:24:16.983Z,12.45
2023-04-14T10:25:19.288Z,10.70
2023-04-14T10:26:21.795Z,11.20
2023-04-14T10:27:24.449Z,11.30
2023-04-14T10:28:28.785Z,11.15
2023-04-14T10:29:31.143Z,11.27
2023-04-14T10:30:33.736Z,10.57
2023-04-14T10:31:40.358Z,11.38
2023-04-14T10:32:44.578Z,11.80
2023-04-14T10:33:46.806Z,13.10
2023-04-14T10:35:05.406Z,13.30
2023-04-14T10:36:08.233Z,11.75
2023-04-14T10:37:16.637Z,11.82
2023-04-14T10:38:18.756Z,11.90
2023-04-14T10:39:23.749Z,12.60
2023-04-14T10:40:26.078Z,13.55
2023-04-14T10:41:49.142Z,12.50
2023-04-14T10:42:55.912Z,12.07
2023-04-14T10:43:58.002Z,12.70
2023-04-14T10:45:05.898Z,14.05
2023-04-14T10:46:09.900Z,13.35
2023-04-14T10:47:23.513Z,12.32
2023-04-14T10:48:27.001Z,13.38
2023-04-14T10:49:37.185Z,14.35
2023-04-14T10:50:47.747Z,13.63
2023-04-14T10:51:50.148Z,13.60
2023-04-14T10:52:56.145Z,14.75
2023-04-14T10:54:03.130Z,13.02
2023-04-14T10:55:09.536Z,13.50
2023-04-14T10:56:12.166Z,14.50
2023-04-14T10:57:18.829Z,14.40
2023-04-14T10:58:22.543Z,14.13
2023-04-14T10:59:24.683Z,13.30
2023-04-14T11:00:28.477Z,13.05
2023-04-14T11:01:32.367Z,13.65
2023-04-14T11:02:35.436Z,12.73
2023-04-14T11:03:45.086Z,13.68
2023-04-14T11:05:06.816Z,12.98
2023-04-14T11:06:12.544Z,12.82
2023-04-14T11:07:20.813Z,12.50
2023-04-14T11:08:27.188Z,13.10
2023-04-14T11:09:32.205Z,12.43
2023-04-14T11:10:34.422Z,13.48
2023-04-14T11:11:36.950Z,13.07
2023-04-14T11:12:43.548Z,12.65
2023-04-14T11:14:10.717Z,12.40
2023-04-14T11:15:13.177Z,13.23
2023-04-14T11:16:26.757Z,13.07
2023-04-14T11:17:34.037Z,13.43
2023-04-14T11:18:46.273Z,12.50
2023-04-14T11:19:48.987Z,14.02
2023-04-14T11:20:52.123Z,12.25
2023-04-14T11:21:54.359Z,12.02
2023-04-14T11:22:58.866Z,11.93
2023-04-14T11:24:01.045Z,11.60
2023-04-14T11:25:03.349Z,12.57
2023-04-14T11:26:06.696Z,12.80
2023-04-14T11:27:11.628Z,13.52
2023-04-14T11:28:13.827Z,12.57
2023-04-14T11:29:16.696Z,14.98
2023-04-14T11:30:19.977Z,12.20
2023-04-14T11:31:27.590Z,11.57
2023-04-14T11:32:30.455Z,11.50
2023-04-14T11:33:34.533Z,12.73
2023-04-14T11:34:36.765Z,13.05
2023-04-14T11:35:38.912Z,13.57
2023-04-14T11:36:41.072Z,12.68
2023-04-14T11:37:43.744Z,12.30
2023-04-14T11:38:46.136Z,13.25
2023-04-14T11:39:50.403Z,11.55
2023-04-14T11:40:52.726Z,12.55
2023-04-14T11:41:56.118Z,13.38
2023-04-14T11:42:58.824Z,12.43
2023-04-14T11:44:00.962Z,12.68
2023-04-14T11:45:04.403Z,12.20
2023-04-14T11:46:08.700Z,12.93
2023-04-14T11:47:11.195Z,13.30
2023-04-14T11:48:16.370Z,12.30
2023-04-14T11:49:19.698Z,12.27
2023-04-14T11:51:30.565Z,12.00
2023-04-14T11:52:34.458Z,11.98
2023-04-14T11:53:36.793Z,14.20
2023-04-14T11:54:39.391Z,11.68
2023-04-14T11:55:49.019Z,10.02
2023-04-14T11:56:51.153Z,9.65
2023-04-14T11:57:54.445Z,11.73
2023-04-14T11:59:04.378Z,11.05
2023-04-14T12:00:08.331Z,10.88
2023-04-14T12:01:14.408Z,11.07
2023-04-14T12:02:18.711Z,9.23
2023-04-14T12:03:21.740Z,9.30
2023-04-14T12:04:24.685Z,8.82
2023-04-14T12:05:31.304Z,9.60
2023-04-14T12:06:36.475Z,9.27
2023-04-14T12:07:39.540Z,10.50
2023-04-14T12:08:41.732Z,9.00
2023-04-14T12:09:46.138Z,10.18
2023-04-14T12:10:48.754Z,8.00
2023-04-14T12:11:55.384Z,9.55
2023-04-14T12:13:05.201Z,9.55
2023-04-14T12:14:07.408Z,9.52
2023-04-14T12:15:10.148Z,10.60
2023-04-14T12:16:12.580Z,10.27
2023-04-14T12:17:15.926Z,9.75
2023-04-14T12:19:21.150Z,9.75
2023-04-14T12:20:23.485Z,9.50
2023-04-14T12:21:25.754Z,9.05
2023-04-14T12:22:29.271Z,9.02
2023-04-14T12:23:41.512Z,9.60
2023-04-14T12:24:44.175Z,9.15
2023-04-14T12:25:49.725Z,9.15
2023-04-14T12:26:52.171Z,9.90
2023-04-14T12:27:57.080Z,9.20
2023-04-14T12:29:00.070Z,9.98
2023-04-14T12:30:02.654Z,10.77
2023-04-14T12:31:04.936Z,7.22
2023-04-14T12:32:14.124Z,4.18
2023-04-14T12:33:16.199Z,4.88
2023-04-14T12:34:25.348Z,4.50
2023-04-14T12:35:34.512Z,5.00
2023-04-14T12:36:49.578Z,4.75
2023-04-14T12:37:53.409Z,5.93
2023-04-14T12:38:55.478Z,5.55
2023-04-14T12:39:59.983Z,6.75
2023-04-14T12:41:02.501Z,5.90
2023-04-14T12:42:04.597Z,7.03
2023-04-14T12:43:06.902Z,6.75
2023-04-14T12:44:20.500Z,7.38
2023-04-14T12:45:22.626Z,6.95
2023-04-14T12:46:26.610Z,8.57
2023-04-14T12:47:33.403Z,8.38
2023-04-14T12:48:46.935Z,8.30
2023-04-14T12:49:49.556Z,10.30
2023-04-14T12:51:11.719Z,9.77
2023-04-14T12:52:38.701Z,10.82
2023-04-14T12:53:42.575Z,10.48
2023-04-14T12:54:46.538Z,10.48
2023-04-14T12:55:48.953Z,11.38
2023-04-14T12:56:51.447Z,8.40
2023-04-14T12:57:54.405Z,10.43
2023-04-14T12:58:56.673Z,10.63
2023-04-14T13:00:00.532Z,10.45
2023-04-14T13:01:02.619Z,11.88
2023-04-14T13:02:04.743Z,11.48
2023-04-14T13:03:07.829Z,11.85
2023-04-14T13:04:10.229Z,9.85
2023-04-14T13:05:12.658Z,9.57
2023-04-14T13:06:16.706Z,9.93
2023-04-14T13:07:18.816Z,9.52
2023-04-14T13:08:20.897Z,10.55
2023-04-14T13:09:22.993Z,9.82
2023-04-14T13:10:25.098Z,9.65
2023-04-14T13:11:27.169Z,9.77
2023-04-14T13:12:29.298Z,7.95
2023-04-14T13:13:31.378Z,10.20
2023-04-14T13:14:33.436Z,9.80
2023-04-14T13:16:14.637Z,10.20
2023-04-14T13:16:57.649Z,9.85
2023-04-14T13:17:59.850Z,11.00
2023-04-14T13:19:02.678Z,11.32
2023-04-14T13:20:05.623Z,10.52
2023-04-14T13:21:07.842Z,11.40
2023-04-14T13:22:10.042Z,11.15
2023-04-14T13:23:12.126Z,11.85
2023-04-14T13:24:14.334Z,10.20
2023-04-14T13:25:16.761Z,10.07
2023-04-14T13:26:18.841Z,9.57
2023-04-14T13:27:21.225Z,10.07
2023-04-14T13:28:23.591Z,10.93
2023-04-14T13:29:25.679Z,10.07
2023-04-14T13:30:28.067Z,11.68
2023-04-14T13:31:30.182Z,9.48
2023-04-14T13:32:32.426Z,9.30
2023-04-14T13:33:34.506Z,11.75
2023-04-14T13:34:37.635Z,9.68
2023-04-14T13:35:40.254Z,10.35
2023-04-14T13:36:42.356Z,9.02
2023-04-14T13:37:44.442Z,9.95
2023-04-14T13:38:47.265Z,9.75
2023-04-14T13:39:49.471Z,9.15
2023-04-14T13:40:51.716Z,8.88
2023-04-14T13:41:53.794Z,9.23
2023-04-14T13:42:55.861Z,9.38
2023-04-14T13:43:58.205Z,9.48
2023-04-14T13:45:00.312Z,9.98
2023-04-14T13:46:02.567Z,10.93
2023-04-14T13:47:04.732Z,8.25
2023-04-14T13:48:06.886Z,10.73
2023-04-14T13:49:09.047Z,8.52
2023-04-14T13:50:11.418Z,8.60
2023-04-14T13:51:13.793Z,9.80
2023-04-14T13:52:16.159Z,10.90
2023-04-14T13:53:18.221Z,9.70
2023-04-14T13:54:20.349Z,8.48
2023-04-14T13:55:22.473Z,10.10
2023-04-14T13:56:25.754Z,10.40
2023-04-14T13:57:28.021Z,9.63
2023-04-14T13:58:30.266Z,9.48
2023-04-14T13:59:33.114Z,8.93
2023-04-14T14:00:35.286Z,8.20
2023-04-14T14:01:37.634Z,8.98
2023-04-14T14:02:40.314Z,7.68
2023-04-14T14:03:42.774Z,7.70
2023-04-14T14:04:45.156Z,9.15
2023-04-14T14:05:47.462Z,8.88
2023-04-14T14:06:49.566Z,8.38
2023-04-14T14:07:51.827Z,8.10
2023-04-14T14:09:06.269Z,8.38
2023-04-14T14:10:10.598Z,8.07
2023-04-14T14:11:14.012Z,8.02